sensor_id;sensor_type;location;lat;lon;timestamp;P1;durP1;ratioP1;P2;durP2;ratioP2
7017;SDS011;3549;42.162;24.726;2022-12-18T00:01:42;148.90;;;58.10;;
7017;SDS011;3549;42.162;24.726;2022-12-18T00:04:12;151.53;;;60.97;;
7017;SDS011;3549;42.162;24.726;2022-12-18T00:06:44;132.70;;;53.70;;
7017;SDS011;3549;42.162;24.726;2022-12-18T00:09:10;131.33;;;53.17;;
7017;SDS011;3549;42.162;24.726;2022-12-18T00:11:35;121.97;;;51.33;;
7017;SDS011;3549;42.162;24.726;2022-12-18T00:14:01;122.87;;;50.27;;
7017;SDS011;3549;42.162;24.726;2022-12-18T00:16:27;111.63;;;47.77;;
7017;SDS011;3549;42.162;24.726;2022-12-18T00:18:54;105.43;;;47.87;;
7017;SDS011;3549;42.162;24.726;2022-12-18T00:21:23;106.77;;;46.13;;
7017;SDS011;3549;42.162;24.726;2022-12-18T00:23:49;101.93;;;45.00;;
7017;SDS011;3549;42.162;24.726;2022-12-18T00:26:19;102.83;;;45.73;;
7017;SDS011;3549;42.162;24.726;2022-12-18T00:28:47;102.07;;;45.27;;
7017;SDS011;3549;42.162;24.726;2022-12-18T00:31:14;105.83;;;45.50;;
7017;SDS011;3549;42.162;24.726;2022-12-18T00:33:41;94.57;;;43.73;;
7017;SDS011;3549;42.162;24.726;2022-12-18T00:36:08;95.83;;;43.40;;
7017;SDS011;3549;42.162;24.726;2022-12-18T00:38:36;94.57;;;42.77;;
7017;SDS011;3549;42.162;24.726;2022-12-18T00:41:02;107.27;;;44.93;;
7017;SDS011;3549;42.162;24.726;2022-12-18T00:43:27;99.20;;;43.00;;
7017;SDS011;3549;42.162;24.726;2022-12-18T00:45:53;97.70;;;42.93;;
7017;SDS011;3549;42.162;24.726;2022-12-18T00:48:18;92.97;;;43.53;;
7017;SDS011;3549;42.162;24.726;2022-12-18T00:50:44;98.57;;;44.57;;
7017;SDS011;3549;42.162;24.726;2022-12-18T00:53:10;90.47;;;42.07;;
7017;SDS011;3549;42.162;24.726;2022-12-18T00:55:37;99.03;;;43.37;;
7017;SDS011;3549;42.162;24.726;2022-12-18T00:58:03;148.80;;;62.67;;
7017;SDS011;3549;42.162;24.726;2022-12-18T01:00:29;190.50;;;77.77;;
7017;SDS011;3549;42.162;24.726;2022-12-18T01:02:54;129.80;;;56.37;;
7017;SDS011;3549;42.162;24.726;2022-12-18T01:05:19;105.43;;;46.07;;
7017;SDS011;3549;42.162;24.726;2022-12-18T01:07:45;97.03;;;44.10;;
7017;SDS011;3549;42.162;24.726;2022-12-18T01:10:11;106.20;;;44.77;;
7017;SDS011;3549;42.162;24.726;2022-12-18T01:12:37;99.50;;;44.33;;
7017;SDS011;3549;42.162;24.726;2022-12-18T01:15:03;104.90;;;46.50;;
7017;SDS011;3549;42.162;24.726;2022-12-18T01:17:30;106.50;;;46.37;;
7017;SDS011;3549;42.162;24.726;2022-12-18T01:19:56;100.87;;;45.57;;
7017;SDS011;3549;42.162;24.726;2022-12-18T01:22:21;99.67;;;44.90;;
7017;SDS011;3549;42.162;24.726;2022-12-18T01:24:47;94.33;;;43.37;;
7017;SDS011;3549;42.162;24.726;2022-12-18T01:27:12;101.67;;;44.53;;
7017;SDS011;3549;42.162;24.726;2022-12-18T01:29:38;96.17;;;43.23;;
7017;SDS011;3549;42.162;24.726;2022-12-18T01:32:03;97.77;;;44.50;;
7017;SDS011;3549;42.162;24.726;2022-12-18T01:34:29;92.50;;;42.57;;
7017;SDS011;3549;42.162;24.726;2022-12-18T01:36:54;95.33;;;44.47;;
7017;SDS011;3549;42.162;24.726;2022-12-18T01:39:19;90.33;;;42.70;;
7017;SDS011;3549;42.162;24.726;2022-12-18T01:41:45;102.93;;;43.93;;
7017;SDS011;3549;42.162;24.726;2022-12-18T01:47:33;94.77;;;43.00;;
7017;SDS011;3549;42.162;24.726;2022-12-18T01:50:00;108.50;;;46.80;;
7017;SDS011;3549;42.162;24.726;2022-12-18T01:52:31;112.63;;;48.90;;
7017;SDS011;3549;42.162;24.726;2022-12-18T01:54:59;119.93;;;52.97;;
7017;SDS011;3549;42.162;24.726;2022-12-18T01:57:27;112.40;;;48.00;;
7017;SDS011;3549;42.162;24.726;2022-12-18T01:59:53;102.27;;;44.37;;
7017;SDS011;3549;42.162;24.726;2022-12-18T02:02:26;107.03;;;47.10;;
7017;SDS011;3549;42.162;24.726;2022-12-18T02:04:53;106.03;;;46.17;;
7017;SDS011;3549;42.162;24.726;2022-12-18T02:07:29;100.13;;;46.57;;
7017;SDS011;3549;42.162;24.726;2022-12-18T02:13:09;99.50;;;43.50;;
7017;SDS011;3549;42.162;24.726;2022-12-18T02:15:51;98.47;;;43.03;;
7017;SDS011;3549;42.162;24.726;2022-12-18T02:18:21;87.27;;;39.27;;
7017;SDS011;3549;42.162;24.726;2022-12-18T02:23:45;87.43;;;39.63;;
7017;SDS011;3549;42.162;24.726;2022-12-18T02:26:36;94.27;;;40.70;;
7017;SDS011;3549;42.162;24.726;2022-12-18T02:29:16;84.17;;;37.43;;
7017;SDS011;3549;42.162;24.726;2022-12-18T02:32:08;90.83;;;40.60;;
7017;SDS011;3549;42.162;24.726;2022-12-18T02:34:36;84.77;;;38.67;;
7017;SDS011;3549;42.162;24.726;2022-12-18T02:37:05;97.93;;;44.77;;
7017;SDS011;3549;42.162;24.726;2022-12-18T02:39:36;92.80;;;43.83;;
7017;SDS011;3549;42.162;24.726;2022-12-18T02:42:03;78.70;;;37.70;;
7017;SDS011;3549;42.162;24.726;2022-12-18T02:44:33;75.73;;;35.73;;
7017;SDS011;3549;42.162;24.726;2022-12-18T02:46:59;95.27;;;45.07;;
7017;SDS011;3549;42.162;24.726;2022-12-18T02:55:05;192.80;;;90.53;;
7017;SDS011;3549;42.162;24.726;2022-12-18T03:03:30;418.10;;;209.23;;
7017;SDS011;3549;42.162;24.726;2022-12-18T03:06:12;354.30;;;156.10;;
7017;SDS011;3549;42.162;24.726;2022-12-18T03:08:46;275.90;;;122.63;;
7017;SDS011;3549;42.162;24.726;2022-12-18T03:11:16;194.23;;;93.70;;
7017;SDS011;3549;42.162;24.726;2022-12-18T03:14:01;162.37;;;79.13;;
7017;SDS011;3549;42.162;24.726;2022-12-18T03:16:28;146.00;;;67.83;;
7017;SDS011;3549;42.162;24.726;2022-12-18T03:19:10;119.40;;;57.30;;
7017;SDS011;3549;42.162;24.726;2022-12-18T03:21:44;83.20;;;41.10;;
7017;SDS011;3549;42.162;24.726;2022-12-18T03:24:12;77.87;;;38.37;;
7017;SDS011;3549;42.162;24.726;2022-12-18T03:26:40;97.40;;;47.63;;
7017;SDS011;3549;42.162;24.726;2022-12-18T03:29:11;90.70;;;42.90;;
7017;SDS011;3549;42.162;24.726;2022-12-18T03:31:42;88.73;;;42.87;;
7017;SDS011;3549;42.162;24.726;2022-12-18T03:34:15;90.53;;;46.43;;
7017;SDS011;3549;42.162;24.726;2022-12-18T03:36:47;82.03;;;41.50;;
7017;SDS011;3549;42.162;24.726;2022-12-18T03:39:13;72.30;;;36.57;;
7017;SDS011;3549;42.162;24.726;2022-12-18T03:41:47;73.63;;;37.27;;
7017;SDS011;3549;42.162;24.726;2022-12-18T03:44:28;67.53;;;32.10;;
7017;SDS011;3549;42.162;24.726;2022-12-18T03:52:15;40.83;;;19.57;;
7017;SDS011;3549;42.162;24.726;2022-12-18T03:54:45;37.10;;;17.67;;
7017;SDS011;3549;42.162;24.726;2022-12-18T03:57:16;38.70;;;19.87;;
7017;SDS011;3549;42.162;24.726;2022-12-18T03:59:45;35.17;;;17.70;;
7017;SDS011;3549;42.162;24.726;2022-12-18T04:02:13;35.80;;;17.27;;
7017;SDS011;3549;42.162;24.726;2022-12-18T04:04:41;31.17;;;15.80;;
7017;SDS011;3549;42.162;24.726;2022-12-18T04:07:08;31.77;;;15.20;;
7017;SDS011;3549;42.162;24.726;2022-12-18T04:09:34;31.27;;;14.27;;
7017;SDS011;3549;42.162;24.726;2022-12-18T04:12:01;27.87;;;13.37;;
7017;SDS011;3549;42.162;24.726;2022-12-18T04:14:27;28.47;;;14.20;;
7017;SDS011;3549;42.162;24.726;2022-12-18T04:16:52;29.80;;;15.87;;
7017;SDS011;3549;42.162;24.726;2022-12-18T04:19:18;32.77;;;16.60;;
7017;SDS011;3549;42.162;24.726;2022-12-18T04:21:43;36.20;;;18.30;;
7017;SDS011;3549;42.162;24.726;2022-12-18T04:24:09;34.10;;;17.03;;
7017;SDS011;3549;42.162;24.726;2022-12-18T04:26:34;29.67;;;14.27;;
7017;SDS011;3549;42.162;24.726;2022-12-18T04:28:59;37.83;;;18.30;;
7017;SDS011;3549;42.162;24.726;2022-12-18T04:31:25;36.57;;;18.53;;
7017;SDS011;3549;42.162;24.726;2022-12-18T04:33:50;32.87;;;16.60;;
7017;SDS011;3549;42.162;24.726;2022-12-18T04:36:16;30.37;;;15.67;;
7017;SDS011;3549;42.162;24.726;2022-12-18T04:38:41;30.53;;;14.43;;
7017;SDS011;3549;42.162;24.726;2022-12-18T04:41:07;49.67;;;24.93;;
7017;SDS011;3549;42.162;24.726;2022-12-18T04:43:32;30.83;;;17.73;;
7017;SDS011;3549;42.162;24.726;2022-12-18T04:46:01;25.00;;;11.57;;
7017;SDS011;3549;42.162;24.726;2022-12-18T04:48:28;22.10;;;11.80;;
7017;SDS011;3549;42.162;24.726;2022-12-18T04:50:53;19.10;;;10.00;;
7017;SDS011;3549;42.162;24.726;2022-12-18T04:53:19;27.30;;;14.23;;
7017;SDS011;3549;42.162;24.726;2022-12-18T04:55:44;18.00;;;9.47;;
7017;SDS011;3549;42.162;24.726;2022-12-18T04:58:10;23.70;;;12.77;;
7017;SDS011;3549;42.162;24.726;2022-12-18T05:00:35;26.70;;;14.60;;
7017;SDS011;3549;42.162;24.726;2022-12-18T05:03:01;15.67;;;8.30;;
7017;SDS011;3549;42.162;24.726;2022-12-18T05:05:27;13.07;;;6.67;;
7017;SDS011;3549;42.162;24.726;2022-12-18T05:07:52;13.57;;;7.77;;
7017;SDS011;3549;42.162;24.726;2022-12-18T05:10:18;16.50;;;8.37;;
7017;SDS011;3549;42.162;24.726;2022-12-18T05:12:43;11.67;;;7.17;;
7017;SDS011;3549;42.162;24.726;2022-12-18T05:15:27;22.57;;;10.70;;
7017;SDS011;3549;42.162;24.726;2022-12-18T05:17:57;17.70;;;9.90;;
7017;SDS011;3549;42.162;24.726;2022-12-18T05:20:22;18.93;;;10.70;;
7017;SDS011;3549;42.162;24.726;2022-12-18T05:22:48;16.37;;;9.40;;
7017;SDS011;3549;42.162;24.726;2022-12-18T05:25:14;15.03;;;8.90;;
7017;SDS011;3549;42.162;24.726;2022-12-18T05:27:40;12.20;;;7.03;;
7017;SDS011;3549;42.162;24.726;2022-12-18T05:30:05;13.80;;;7.67;;
7017;SDS011;3549;42.162;24.726;2022-12-18T05:32:31;12.77;;;8.30;;
7017;SDS011;3549;42.162;24.726;2022-12-18T05:34:56;19.57;;;11.50;;
7017;SDS011;3549;42.162;24.726;2022-12-18T05:37:22;13.93;;;8.17;;
7017;SDS011;3549;42.162;24.726;2022-12-18T05:39:48;17.77;;;9.33;;
7017;SDS011;3549;42.162;24.726;2022-12-18T05:42:13;16.33;;;10.33;;
7017;SDS011;3549;42.162;24.726;2022-12-18T05:44:39;17.07;;;11.47;;
7017;SDS011;3549;42.162;24.726;2022-12-18T05:47:04;23.77;;;12.00;;
7017;SDS011;3549;42.162;24.726;2022-12-18T05:49:30;15.17;;;9.10;;
7017;SDS011;3549;42.162;24.726;2022-12-18T05:51:55;16.23;;;9.00;;
7017;SDS011;3549;42.162;24.726;2022-12-18T05:54:20;17.33;;;9.47;;
7017;SDS011;3549;42.162;24.726;2022-12-18T05:56:46;12.90;;;7.87;;
7017;SDS011;3549;42.162;24.726;2022-12-18T05:59:12;23.53;;;12.50;;
7017;SDS011;3549;42.162;24.726;2022-12-18T06:01:37;8.63;;;5.53;;
7017;SDS011;3549;42.162;24.726;2022-12-18T06:04:03;12.00;;;7.40;;
7017;SDS011;3549;42.162;24.726;2022-12-18T06:06:28;15.63;;;8.83;;
7017;SDS011;3549;42.162;24.726;2022-12-18T06:08:54;12.87;;;8.10;;
7017;SDS011;3549;42.162;24.726;2022-12-18T06:11:21;14.23;;;8.20;;
7017;SDS011;3549;42.162;24.726;2022-12-18T06:13:52;17.40;;;9.17;;
7017;SDS011;3549;42.162;24.726;2022-12-18T06:16:20;12.83;;;6.10;;
7017;SDS011;3549;42.162;24.726;2022-12-18T06:18:45;19.57;;;9.03;;
7017;SDS011;3549;42.162;24.726;2022-12-18T06:21:11;27.77;;;11.90;;
7017;SDS011;3549;42.162;24.726;2022-12-18T06:23:36;37.43;;;15.77;;
7017;SDS011;3549;42.162;24.726;2022-12-18T06:26:06;19.60;;;9.93;;
7017;SDS011;3549;42.162;24.726;2022-12-18T06:28:32;22.93;;;12.40;;
7017;SDS011;3549;42.162;24.726;2022-12-18T06:30:58;37.03;;;17.43;;
7017;SDS011;3549;42.162;24.726;2022-12-18T06:33:25;32.10;;;15.43;;
7017;SDS011;3549;42.162;24.726;2022-12-18T06:35:51;19.57;;;11.27;;
7017;SDS011;3549;42.162;24.726;2022-12-18T06:38:17;20.40;;;10.53;;
7017;SDS011;3549;42.162;24.726;2022-12-18T06:40:42;20.17;;;9.43;;
7017;SDS011;3549;42.162;24.726;2022-12-18T06:43:08;17.63;;;10.03;;
7017;SDS011;3549;42.162;24.726;2022-12-18T06:45:33;17.73;;;9.53;;
7017;SDS011;3549;42.162;24.726;2022-12-18T06:47:59;29.77;;;15.63;;
7017;SDS011;3549;42.162;24.726;2022-12-18T06:50:24;24.07;;;14.27;;
7017;SDS011;3549;42.162;24.726;2022-12-18T06:52:49;25.90;;;14.53;;
7017;SDS011;3549;42.162;24.726;2022-12-18T06:55:15;16.70;;;9.73;;
7017;SDS011;3549;42.162;24.726;2022-12-18T06:57:40;15.20;;;7.00;;
7017;SDS011;3549;42.162;24.726;2022-12-18T07:00:06;22.33;;;11.83;;
7017;SDS011;3549;42.162;24.726;2022-12-18T07:02:32;18.30;;;10.40;;
7017;SDS011;3549;42.162;24.726;2022-12-18T07:04:57;23.93;;;12.47;;
7017;SDS011;3549;42.162;24.726;2022-12-18T07:07:23;30.97;;;15.67;;
7017;SDS011;3549;42.162;24.726;2022-12-18T07:09:49;126.70;;;61.37;;
7017;SDS011;3549;42.162;24.726;2022-12-18T07:12:15;29.43;;;17.20;;
7017;SDS011;3549;42.162;24.726;2022-12-18T07:14:41;22.53;;;11.97;;
7017;SDS011;3549;42.162;24.726;2022-12-18T07:17:07;30.93;;;18.07;;
7017;SDS011;3549;42.162;24.726;2022-12-18T07:19:32;41.23;;;24.27;;
7017;SDS011;3549;42.162;24.726;2022-12-18T07:21:58;31.23;;;17.03;;
7017;SDS011;3549;42.162;24.726;2022-12-18T07:24:23;20.03;;;10.43;;
7017;SDS011;3549;42.162;24.726;2022-12-18T07:26:49;18.70;;;10.33;;
7017;SDS011;3549;42.162;24.726;2022-12-18T07:29:15;25.30;;;13.33;;
7017;SDS011;3549;42.162;24.726;2022-12-18T07:31:40;24.13;;;11.77;;
7017;SDS011;3549;42.162;24.726;2022-12-18T07:34:09;19.40;;;10.63;;
7017;SDS011;3549;42.162;24.726;2022-12-18T07:36:36;23.23;;;12.53;;
7017;SDS011;3549;42.162;24.726;2022-12-18T07:39:02;21.93;;;11.20;;
7017;SDS011;3549;42.162;24.726;2022-12-18T07:41:27;32.53;;;15.30;;
7017;SDS011;3549;42.162;24.726;2022-12-18T07:43:53;29.67;;;15.37;;
7017;SDS011;3549;42.162;24.726;2022-12-18T07:46:18;34.70;;;18.93;;
7017;SDS011;3549;42.162;24.726;2022-12-18T07:48:44;29.20;;;15.83;;
7017;SDS011;3549;42.162;24.726;2022-12-18T07:51:12;23.80;;;12.30;;
7017;SDS011;3549;42.162;24.726;2022-12-18T07:53:39;31.73;;;15.63;;
7017;SDS011;3549;42.162;24.726;2022-12-18T07:56:06;26.47;;;14.27;;
7017;SDS011;3549;42.162;24.726;2022-12-18T07:58:33;23.03;;;12.73;;
7017;SDS011;3549;42.162;24.726;2022-12-18T08:01:06;20.57;;;11.33;;
7017;SDS011;3549;42.162;24.726;2022-12-18T08:03:36;19.10;;;11.10;;
7017;SDS011;3549;42.162;24.726;2022-12-18T08:06:03;23.27;;;13.63;;
7017;SDS011;3549;42.162;24.726;2022-12-18T08:08:30;22.73;;;11.33;;
7017;SDS011;3549;42.162;24.726;2022-12-18T08:10:56;21.93;;;11.13;;
7017;SDS011;3549;42.162;24.726;2022-12-18T08:13:22;25.80;;;13.83;;
7017;SDS011;3549;42.162;24.726;2022-12-18T08:15:58;29.63;;;15.63;;
7017;SDS011;3549;42.162;24.726;2022-12-18T08:18:24;22.00;;;13.00;;
7017;SDS011;3549;42.162;24.726;2022-12-18T08:20:50;61.77;;;29.10;;
7017;SDS011;3549;42.162;24.726;2022-12-18T08:23:15;21.37;;;10.20;;
7017;SDS011;3549;42.162;24.726;2022-12-18T08:25:41;22.00;;;12.27;;
7017;SDS011;3549;42.162;24.726;2022-12-18T08:28:06;22.27;;;11.00;;
7017;SDS011;3549;42.162;24.726;2022-12-18T08:30:32;31.60;;;13.97;;
7017;SDS011;3549;42.162;24.726;2022-12-18T08:32:57;15.27;;;7.33;;
7017;SDS011;3549;42.162;24.726;2022-12-18T08:35:23;24.13;;;12.33;;
7017;SDS011;3549;42.162;24.726;2022-12-18T08:37:48;27.87;;;14.00;;
7017;SDS011;3549;42.162;24.726;2022-12-18T08:40:14;37.03;;;21.73;;
7017;SDS011;3549;42.162;24.726;2022-12-18T08:42:39;30.20;;;18.50;;
7017;SDS011;3549;42.162;24.726;2022-12-18T08:45:23;21.93;;;12.67;;
7017;SDS011;3549;42.162;24.726;2022-12-18T08:47:49;29.53;;;18.03;;
7017;SDS011;3549;42.162;24.726;2022-12-18T08:50:15;21.10;;;11.07;;
7017;SDS011;3549;42.162;24.726;2022-12-18T08:52:40;25.27;;;12.17;;
7017;SDS011;3549;42.162;24.726;2022-12-18T08:55:06;26.60;;;14.33;;
7017;SDS011;3549;42.162;24.726;2022-12-18T08:57:32;24.73;;;12.03;;
7017;SDS011;3549;42.162;24.726;2022-12-18T08:59:57;25.03;;;12.70;;
7017;SDS011;3549;42.162;24.726;2022-12-18T09:02:22;23.40;;;13.07;;
7017;SDS011;3549;42.162;24.726;2022-12-18T09:04:48;23.33;;;11.87;;
7017;SDS011;3549;42.162;24.726;2022-12-18T09:07:13;29.40;;;15.57;;
7017;SDS011;3549;42.162;24.726;2022-12-18T09:09:39;39.90;;;21.00;;
7017;SDS011;3549;42.162;24.726;2022-12-18T09:12:04;35.30;;;19.20;;
7017;SDS011;3549;42.162;24.726;2022-12-18T09:14:30;33.40;;;16.43;;
7017;SDS011;3549;42.162;24.726;2022-12-18T09:16:55;31.80;;;16.67;;
7017;SDS011;3549;42.162;24.726;2022-12-18T09:19:23;31.77;;;16.13;;
7017;SDS011;3549;42.162;24.726;2022-12-18T09:21:48;29.23;;;15.00;;
7017;SDS011;3549;42.162;24.726;2022-12-18T09:27:13;22.37;;;11.80;;
7017;SDS011;3549;42.162;24.726;2022-12-18T09:29:39;44.17;;;22.50;;
7017;SDS011;3549;42.162;24.726;2022-12-18T09:32:04;44.20;;;17.83;;
7017;SDS011;3549;42.162;24.726;2022-12-18T09:34:30;38.37;;;22.50;;
7017;SDS011;3549;42.162;24.726;2022-12-18T09:36:55;30.63;;;16.30;;
7017;SDS011;3549;42.162;24.726;2022-12-18T09:39:21;31.10;;;18.13;;
7017;SDS011;3549;42.162;24.726;2022-12-18T09:41:53;37.13;;;17.20;;
7017;SDS011;3549;42.162;24.726;2022-12-18T09:44:28;23.37;;;11.53;;
7017;SDS011;3549;42.162;24.726;2022-12-18T09:49:43;27.50;;;14.87;;
7017;SDS011;3549;42.162;24.726;2022-12-18T09:52:14;43.50;;;18.87;;
7017;SDS011;3549;42.162;24.726;2022-12-18T09:54:55;31.67;;;14.00;;
7017;SDS011;3549;42.162;24.726;2022-12-18T09:57:25;60.23;;;21.40;;
7017;SDS011;3549;42.162;24.726;2022-12-18T09:59:55;37.80;;;14.53;;
7017;SDS011;3549;42.162;24.726;2022-12-18T10:02:24;51.67;;;20.80;;
7017;SDS011;3549;42.162;24.726;2022-12-18T10:05:02;27.53;;;12.40;;
7017;SDS011;3549;42.162;24.726;2022-12-18T10:15:40;56.10;;;30.53;;
7017;SDS011;3549;42.162;24.726;2022-12-18T10:18:31;31.90;;;14.23;;
7017;SDS011;3549;42.162;24.726;2022-12-18T10:21:05;43.80;;;27.50;;
7017;SDS011;3549;42.162;24.726;2022-12-18T10:23:44;21.37;;;11.03;;
7017;SDS011;3549;42.162;24.726;2022-12-18T10:26:15;31.93;;;16.80;;
7017;SDS011;3549;42.162;24.726;2022-12-18T10:28:41;27.37;;;17.10;;
7017;SDS011;3549;42.162;24.726;2022-12-18T10:31:07;20.47;;;13.30;;
7017;SDS011;3549;42.162;24.726;2022-12-18T10:33:41;21.30;;;13.13;;
7017;SDS011;3549;42.162;24.726;2022-12-18T10:36:07;23.63;;;13.60;;
7017;SDS011;3549;42.162;24.726;2022-12-18T10:38:33;26.30;;;16.67;;
7017;SDS011;3549;42.162;24.726;2022-12-18T10:43:42;17.90;;;11.37;;
7017;SDS011;3549;42.162;24.726;2022-12-18T10:48:50;30.73;;;17.60;;
7017;SDS011;3549;42.162;24.726;2022-12-18T10:54:00;28.03;;;14.63;;
7017;SDS011;3549;42.162;24.726;2022-12-18T10:56:31;44.17;;;24.57;;
7017;SDS011;3549;42.162;24.726;2022-12-18T10:59:03;25.80;;;14.70;;
7017;SDS011;3549;42.162;24.726;2022-12-18T11:01:52;49.00;;;27.60;;
7017;SDS011;3549;42.162;24.726;2022-12-18T11:04:27;23.30;;;12.87;;
7017;SDS011;3549;42.162;24.726;2022-12-18T11:11:53;20.97;;;9.83;;
7017;SDS011;3549;42.162;24.726;2022-12-18T11:17:16;40.30;;;18.03;;
7017;SDS011;3549;42.162;24.726;2022-12-18T11:19:59;36.00;;;18.10;;
7017;SDS011;3549;42.162;24.726;2022-12-18T11:22:28;41.63;;;21.60;;
7017;SDS011;3549;42.162;24.726;2022-12-18T11:27:30;40.07;;;20.67;;
7017;SDS011;3549;42.162;24.726;2022-12-18T11:30:09;37.70;;;20.37;;
7017;SDS011;3549;42.162;24.726;2022-12-18T11:38:16;52.67;;;25.77;;
7017;SDS011;3549;42.162;24.726;2022-12-18T11:40:43;53.47;;;29.60;;
7017;SDS011;3549;42.162;24.726;2022-12-18T11:43:21;55.23;;;29.47;;
7017;SDS011;3549;42.162;24.726;2022-12-18T11:45:54;47.07;;;24.80;;
7017;SDS011;3549;42.162;24.726;2022-12-18T11:48:26;43.40;;;21.63;;
7017;SDS011;3549;42.162;24.726;2022-12-18T11:50:55;62.43;;;33.90;;
7017;SDS011;3549;42.162;24.726;2022-12-18T11:53:23;52.33;;;29.37;;
7017;SDS011;3549;42.162;24.726;2022-12-18T11:58:45;53.70;;;30.00;;
7017;SDS011;3549;42.162;24.726;2022-12-18T12:11:52;56.37;;;30.47;;
7017;SDS011;3549;42.162;24.726;2022-12-18T12:14:41;43.93;;;22.43;;
7017;SDS011;3549;42.162;24.726;2022-12-18T12:17:24;75.33;;;38.40;;
7017;SDS011;3549;42.162;24.726;2022-12-18T12:23:12;40.13;;;20.50;;
7017;SDS011;3549;42.162;24.726;2022-12-18T12:28:30;55.27;;;27.63;;
7017;SDS011;3549;42.162;24.726;2022-12-18T12:39:33;64.83;;;30.73;;
7017;SDS011;3549;42.162;24.726;2022-12-18T12:42:02;60.67;;;29.67;;
7017;SDS011;3549;42.162;24.726;2022-12-18T12:44:54;107.27;;;43.90;;
7017;SDS011;3549;42.162;24.726;2022-12-18T12:47:28;38.87;;;17.67;;
7017;SDS011;3549;42.162;24.726;2022-12-18T12:49:58;54.77;;;26.37;;
7017;SDS011;3549;42.162;24.726;2022-12-18T12:52:31;70.33;;;35.43;;
7017;SDS011;3549;42.162;24.726;2022-12-18T12:55:04;65.47;;;32.43;;
7017;SDS011;3549;42.162;24.726;2022-12-18T12:57:38;64.83;;;31.37;;
7017;SDS011;3549;42.162;24.726;2022-12-18T13:02:51;144.83;;;80.27;;
7017;SDS011;3549;42.162;24.726;2022-12-18T13:08:31;129.80;;;57.10;;
7017;SDS011;3549;42.162;24.726;2022-12-18T13:11:28;71.70;;;42.00;;
7017;SDS011;3549;42.162;24.726;2022-12-18T13:14:22;105.57;;;63.93;;
7017;SDS011;3549;42.162;24.726;2022-12-18T13:16:49;95.90;;;50.00;;
7017;SDS011;3549;42.162;24.726;2022-12-18T13:19:22;117.60;;;62.70;;
7017;SDS011;3549;42.162;24.726;2022-12-18T13:21:53;94.73;;;45.87;;
7017;SDS011;3549;42.162;24.726;2022-12-18T13:24:23;121.90;;;63.27;;
7017;SDS011;3549;42.162;24.726;2022-12-18T13:26:51;131.50;;;61.93;;
7017;SDS011;3549;42.162;24.726;2022-12-18T13:32:22;160.30;;;89.87;;
7017;SDS011;3549;42.162;24.726;2022-12-18T13:34:48;157.80;;;85.07;;
7017;SDS011;3549;42.162;24.726;2022-12-18T13:37:41;167.13;;;83.20;;
7017;SDS011;3549;42.162;24.726;2022-12-18T13:45:45;43.17;;;22.77;;
7017;SDS011;3549;42.162;24.726;2022-12-18T13:48:32;51.50;;;28.53;;
7017;SDS011;3549;42.162;24.726;2022-12-18T13:51:02;52.27;;;25.10;;
7017;SDS011;3549;42.162;24.726;2022-12-18T13:53:33;62.83;;;29.30;;
7017;SDS011;3549;42.162;24.726;2022-12-18T13:56:04;50.30;;;24.97;;
7017;SDS011;3549;42.162;24.726;2022-12-18T13:58:30;45.93;;;21.20;;
7017;SDS011;3549;42.162;24.726;2022-12-18T14:00:56;47.63;;;20.77;;
7017;SDS011;3549;42.162;24.726;2022-12-18T14:03:24;50.73;;;23.03;;
7017;SDS011;3549;42.162;24.726;2022-12-18T14:06:10;42.67;;;20.43;;
7017;SDS011;3549;42.162;24.726;2022-12-18T14:08:38;88.50;;;35.10;;
7017;SDS011;3549;42.162;24.726;2022-12-18T14:11:18;59.10;;;27.47;;
7017;SDS011;3549;42.162;24.726;2022-12-18T14:13:47;47.73;;;24.70;;
7017;SDS011;3549;42.162;24.726;2022-12-18T14:16:13;40.37;;;20.50;;
7017;SDS011;3549;42.162;24.726;2022-12-18T14:18:54;41.83;;;20.83;;
7017;SDS011;3549;42.162;24.726;2022-12-18T14:21:28;27.93;;;14.97;;
7017;SDS011;3549;42.162;24.726;2022-12-18T14:26:44;30.47;;;14.97;;
7017;SDS011;3549;42.162;24.726;2022-12-18T14:29:29;33.57;;;18.13;;
7017;SDS011;3549;42.162;24.726;2022-12-18T14:32:15;31.73;;;16.60;;
7017;SDS011;3549;42.162;24.726;2022-12-18T14:34:46;26.13;;;12.53;;
7017;SDS011;3549;42.162;24.726;2022-12-18T14:37:13;25.27;;;12.97;;
7017;SDS011;3549;42.162;24.726;2022-12-18T14:39:40;28.03;;;14.47;;
7017;SDS011;3549;42.162;24.726;2022-12-18T14:42:17;28.37;;;13.87;;
7017;SDS011;3549;42.162;24.726;2022-12-18T14:44:43;28.07;;;15.13;;
7017;SDS011;3549;42.162;24.726;2022-12-18T14:47:14;24.30;;;12.60;;
7017;SDS011;3549;42.162;24.726;2022-12-18T14:49:41;25.43;;;12.17;;
7017;SDS011;3549;42.162;24.726;2022-12-18T14:55:05;29.53;;;14.10;;
7017;SDS011;3549;42.162;24.726;2022-12-18T14:57:38;29.63;;;13.90;;
7017;SDS011;3549;42.162;24.726;2022-12-18T15:00:11;34.70;;;15.30;;
7017;SDS011;3549;42.162;24.726;2022-12-18T15:02:41;44.63;;;19.53;;
7017;SDS011;3549;42.162;24.726;2022-12-18T15:10:12;43.73;;;20.03;;
7017;SDS011;3549;42.162;24.726;2022-12-18T15:12:48;41.27;;;17.23;;
7017;SDS011;3549;42.162;24.726;2022-12-18T15:18:10;31.07;;;14.97;;
7017;SDS011;3549;42.162;24.726;2022-12-18T15:20:45;29.97;;;15.37;;
7017;SDS011;3549;42.162;24.726;2022-12-18T15:25:39;32.03;;;16.50;;
7017;SDS011;3549;42.162;24.726;2022-12-18T15:28:15;27.67;;;14.47;;
7017;SDS011;3549;42.162;24.726;2022-12-18T15:31:00;30.53;;;15.97;;
7017;SDS011;3549;42.162;24.726;2022-12-18T15:34:00;40.37;;;18.13;;
7017;SDS011;3549;42.162;24.726;2022-12-18T15:36:17;40.60;;;18.33;;
7017;SDS011;3549;42.162;24.726;2022-12-18T15:38:47;33.47;;;16.53;;
7017;SDS011;3549;42.162;24.726;2022-12-18T15:41:14;41.97;;;19.87;;
7017;SDS011;3549;42.162;24.726;2022-12-18T15:43:42;42.00;;;19.73;;
7017;SDS011;3549;42.162;24.726;2022-12-18T15:46:11;41.57;;;19.30;;
7017;SDS011;3549;42.162;24.726;2022-12-18T15:48:52;39.63;;;19.67;;
7017;SDS011;3549;42.162;24.726;2022-12-18T15:51:21;40.77;;;20.67;;
7017;SDS011;3549;42.162;24.726;2022-12-18T15:53:57;37.23;;;19.27;;
7017;SDS011;3549;42.162;24.726;2022-12-18T15:56:26;38.13;;;20.40;;
7017;SDS011;3549;42.162;24.726;2022-12-18T15:59:11;43.60;;;22.13;;
7017;SDS011;3549;42.162;24.726;2022-12-18T16:01:42;46.07;;;23.70;;
7017;SDS011;3549;42.162;24.726;2022-12-18T16:04:12;38.43;;;19.63;;
7017;SDS011;3549;42.162;24.726;2022-12-18T16:06:39;38.17;;;20.50;;
7017;SDS011;3549;42.162;24.726;2022-12-18T16:09:09;42.13;;;23.47;;
7017;SDS011;3549;42.162;24.726;2022-12-18T16:11:35;36.37;;;17.77;;
7017;SDS011;3549;42.162;24.726;2022-12-18T16:14:20;36.37;;;18.27;;
7017;SDS011;3549;42.162;24.726;2022-12-18T16:16:48;36.03;;;17.70;;
7017;SDS011;3549;42.162;24.726;2022-12-18T16:19:17;35.50;;;19.10;;
7017;SDS011;3549;42.162;24.726;2022-12-18T16:21:46;45.63;;;21.40;;
7017;SDS011;3549;42.162;24.726;2022-12-18T16:24:17;30.37;;;14.83;;
7017;SDS011;3549;42.162;24.726;2022-12-18T16:26:50;30.23;;;15.83;;
7017;SDS011;3549;42.162;24.726;2022-12-18T16:29:17;29.07;;;14.67;;
7017;SDS011;3549;42.162;24.726;2022-12-18T16:31:43;36.03;;;17.07;;
7017;SDS011;3549;42.162;24.726;2022-12-18T16:34:30;31.50;;;16.50;;
7017;SDS011;3549;42.162;24.726;2022-12-18T16:36:56;33.77;;;16.70;;
7017;SDS011;3549;42.162;24.726;2022-12-18T16:39:23;43.60;;;24.00;;
7017;SDS011;3549;42.162;24.726;2022-12-18T16:41:49;41.03;;;22.27;;
7017;SDS011;3549;42.162;24.726;2022-12-18T16:44:15;51.53;;;29.40;;
7017;SDS011;3549;42.162;24.726;2022-12-18T16:46:41;58.80;;;31.57;;
7017;SDS011;3549;42.162;24.726;2022-12-18T16:49:13;34.67;;;18.60;;